Time;durP1;ratioP1;P1;durP2;ratioP2;P2;SDS_P1;SDS_P2;PMS_P1;PMS_P2;Temp;Humidity;BMP_temperature;BMP_pressure;BME280_temperature;BME280_humidity;BME280_pressure;Samples;Min_cycle;Max_cycle;Signal;HPM_P1;HPM_P2
2022/07/06 00:00:00;;;;;;;6.40;3.53;;;;;12.30;102130.00;;;;10416458;28;20224;-77
2022/07/06 00:05:06;;;;;;;6.30;3.20;;;;;12.20;102134.00;;;;10457599;28;20259;-77
2022/07/06 00:10:08;;;;;;;6.93;3.60;;;;;12.20;102133.00;;;;10457673;28;20236;-77
2022/07/06 00:15:10;;;;;;;11.27;4.53;;;;;12.10;102130.00;;;;10425282;28;20204;-77
2022/07/06 00:20:12;;;;;;;5.97;4.03;;;;;12.00;102126.00;;;;10477005;28;20210;-76
2022/07/06 00:25:13;;;;;;;8.20;4.40;;;;;12.00;102119.00;;;;10481261;28;20204;-77
2022/07/06 00:30:16;;;;;;;12.13;5.00;;;;;12.00;102131.00;;;;10491020;28;20707;-77
2022/07/06 00:35:18;;;;;;;6.67;4.30;;;;;12.00;102114.00;;;;10446883;28;20213;-77
2022/07/06 00:40:20;;;;;;;6.47;4.53;;;;;12.00;102112.00;;;;10463178;28;20213;-77
2022/07/06 00:45:22;;;;;;;8.47;5.13;;;;;12.00;102113.00;;;;10463647;28;20563;-77
2022/07/06 00:50:25;;;;;;;9.33;4.70;;;;;12.00;102120.00;;;;10463800;28;20611;-77
2022/07/06 00:55:34;;;;;;;6.33;4.70;;;;;12.00;102115.00;;;;10431026;28;20197;-77
2022/07/06 01:00:38;;;;;;;10.20;4.87;;;;;12.00;102119.00;;;;10408450;28;20684;-77
2022/07/06 01:05:40;;;;;;;7.87;4.17;;;;;11.90;102115.00;;;;10462589;28;20198;-77
2022/07/06 01:10:43;;;;;;;7.80;5.27;;;;;11.90;102112.00;;;;10478779;28;20200;-77
2022/07/06 01:15:45;;;;;;;6.97;4.50;;;;;11.70;102114.00;;;;10429063;28;20229;-77
2022/07/06 01:20:47;;;;;;;8.10;4.70;;;;;11.80;102111.00;;;;10477928;28;20217;-77
2022/07/06 01:25:49;;;;;;;8.60;5.07;;;;;11.80;102111.00;;;;10444653;28;20263;-77
2022/07/06 01:30:52;;;;;;;8.00;5.47;;;;;11.70;102119.00;;;;10442579;28;20353;-77
2022/07/06 01:35:54;;;;;;;9.00;6.17;;;;;11.70;102119.00;;;;10419698;28;20220;-77
2022/07/06 01:40:58;;;;;;;8.60;5.73;;;;;11.70;102121.00;;;;10434437;28;20225;-77
2022/07/06 01:46:01;;;;;;;11.30;5.80;;;;;11.60;102110.00;;;;10460329;28;20206;-77
2022/07/06 01:51:04;;;;;;;8.60;6.00;;;;;11.60;102118.00;;;;10443194;28;20197;-77
2022/07/06 01:56:07;;;;;;;12.67;6.43;;;;;11.50;102101.00;;;;10449864;28;20272;-77
2022/07/06 02:01:16;;;;;;;10.80;6.77;;;;;11.50;102107.00;;;;10440689;28;20233;-77
2022/07/06 02:06:18;;;;;;;10.77;6.47;;;;;11.40;102107.00;;;;10443713;28;20231;-77
2022/07/06 02:11:22;;;;;;;12.77;7.43;;;;;11.30;102092.00;;;;10427340;28;20572;-77
2022/07/06 02:16:24;;;;;;;8.40;6.57;;;;;11.30;102100.00;;;;10443056;28;20555;-77
2022/07/06 02:21:27;;;;;;;9.93;6.43;;;;;11.20;102097.00;;;;10426557;28;20225;-77
2022/07/06 02:26:29;;;;;;;9.23;6.03;;;;;11.10;102092.00;;;;10458706;28;20193;-77
2022/07/06 02:31:31;;;;;;;10.20;6.63;;;;;11.10;102101.00;;;;10475130;28;20288;-77
2022/07/06 02:36:33;;;;;;;6.93;6.23;;;;;11.20;102101.00;;;;10457904;28;20189;-78
2022/07/06 02:41:36;;;;;;;13.20;6.47;;;;;11.10;102104.00;;;;10441174;28;20217;-77
2022/07/06 02:46:38;;;;;;;16.50;6.70;;;;;11.00;102096.00;;;;10474812;28;20690;-77
2022/07/06 02:51:41;;;;;;;7.83;6.20;;;;;11.00;102098.00;;;;10491658;28;20201;-77
2022/07/06 02:56:44;;;;;;;13.67;7.03;;;;;10.90;102093.00;;;;10473454;28;20200;-77
2022/07/06 03:01:46;;;;;;;10.57;6.43;;;;;10.80;102087.00;;;;10450503;28;20280;-77
2022/07/06 03:06:49;;;;;;;12.63;7.87;;;;;10.80;102100.00;;;;10415936;28;20205;-77
2022/07/06 03:11:51;;;;;;;10.50;6.93;;;;;10.80;102108.00;;;;10416096;28;20206;-77
2022/07/06 03:16:53;;;;;;;9.30;7.20;;;;;10.80;102110.00;;;;10399483;28;20225;-77
2022/07/06 03:21:55;;;;;;;12.60;8.40;;;;;10.80;102114.00;;;;10433548;28;20229;-77
2022/07/06 03:26:59;;;;;;;11.93;7.97;;;;;10.80;102106.00;;;;10473800;28;20281;-77
2022/07/06 03:32:02;;;;;;;12.50;7.77;;;;;10.80;102107.00;;;;10440481;28;20213;-77
2022/07/06 03:37:06;;;;;;;12.00;8.00;;;;;10.70;102113.00;;;;10423847;28;20683;-77
2022/07/06 03:42:10;;;;;;;10.57;7.00;;;;;10.70;102110.00;;;;10457603;28;20292;-77
2022/07/06 03:47:13;;;;;;;14.53;6.93;;;;;10.80;102110.00;;;;10441240;28;20197;-77
2022/07/06 03:52:15;;;;;;;14.33;7.30;;;;;10.80;102115.00;;;;10441090;28;20235;-77
2022/07/06 03:57:25;;;;;;;13.93;7.30;;;;;10.80;102128.00;;;;10463622;28;20194;-77
2022/07/06 04:02:28;;;;;;;14.00;6.70;;;;;10.90;102126.00;;;;10445804;28;20263;-77
2022/07/06 04:07:31;;;;;;;10.30;7.00;;;;;11.00;102125.00;;;;10464365;28;20193;-77
2022/07/06 04:12:43;;;;;;;10.80;6.30;;;;;11.20;102121.00;;;;10447379;28;20197;-77
2022/07/06 04:17:55;;;;;;;11.87;6.20;;;;;11.50;102115.00;;;;10446801;28;20194;-77
2022/07/06 04:23:20;;;;;;;11.70;6.83;;;;;12.10;102120.00;;;;10466126;28;20300;-77
2022/07/06 04:28:26;;;;;;;12.53;7.27;;;;;12.60;102128.00;;;;10431162;28;20202;-77
2022/07/06 04:33:28;;;;;;;8.50;6.93;;;;;12.90;102121.00;;;;10430504;28;20212;-77
2022/07/06 04:38:31;;;;;;;10.17;6.30;;;;;13.10;102125.00;;;;10462942;28;20217;-77
2022/07/06 04:43:37;;;;;;;12.97;7.40;;;;;13.20;102114.00;;;;10461506;28;20209;-77
2022/07/06 04:48:40;;;;;;;12.40;7.87;;;;;13.30;102120.00;;;;10389547;28;20244;-77
2022/07/06 04:53:46;;;;;;;11.40;7.20;;;;;13.50;102120.00;;;;10421479;28;20201;-77
2022/07/06 04:58:50;;;;;;;10.07;7.47;;;;;13.70;102118.00;;;;10421223;28;20712;-77
2022/07/06 05:03:55;;;;;;;11.17;5.53;;;;;13.90;102120.00;;;;10405596;28;20202;-77
2022/07/06 05:09:01;;;;;;;8.37;5.40;;;;;14.00;102120.00;;;;10419597;28;20672;-77
2022/07/06 05:14:06;;;;;;;10.90;6.20;;;;;14.10;102136.00;;;;10428121;28;20201;-77
2022/07/06 05:19:08;;;;;;;10.30;6.63;;;;;14.50;102141.00;;;;10459882;28;20507;-77
2022/07/06 05:24:10;;;;;;;8.60;6.53;;;;;15.00;102148.00;;;;10443664;28;20197;-77
2022/07/06 05:29:13;;;;;;;10.30;6.80;;;;;15.50;102152.00;;;;10460839;28;20223;-78
2022/07/06 05:34:17;;;;;;;7.73;6.47;;;;;15.70;102154.00;;;;10413664;28;20202;-78
2022/07/06 05:39:22;;;;;;;9.20;6.30;;;;;16.30;102142.00;;;;10400149;28;20821;-78
2022/07/06 05:44:25;;;;;;;8.87;6.30;;;;;16.70;102146.00;;;;10417931;28;20699;-78
2022/07/06 05:54:48;;;;;;;14.00;5.65;;;;;19.00;102140.00;;;;10428168;28;20201;-78
2022/07/06 05:59:50;;;;;;;11.30;5.00;;;;;19.70;102148.00;;;;10425719;28;20304;-78
2022/07/06 06:04:53;;;;;;;9.63;5.00;;;;;19.80;102151.00;;;;10458505;28;20571;-78
2022/07/06 06:09:55;;;;;;;9.63;5.32;;;;;20.10;102152.00;;;;10441719;28;20193;-78
2022/07/06 06:14:58;;;;;;;14.13;6.40;;;;;19.40;102161.00;;;;10426568;28;20205;-79
2022/07/06 06:20:01;;;;;;;13.18;6.00;;;;;19.60;102155.00;;;;10441858;28;20698;-78
2022/07/06 06:25:03;;;;;;;21.00;7.55;;;;;19.40;102152.00;;;;10441834;28;20308;-77
2022/07/06 06:30:08;;;;;;;15.88;6.18;;;;;20.40;102146.00;;;;10458272;28;20201;-77
2022/07/06 06:35:11;;;;;;;8.70;3.90;;;;;21.50;102146.00;;;;10441422;28;20201;-77
2022/07/06 06:40:12;;;;;;;9.23;3.95;;;;;21.10;102149.00;;;;10457136;28;20217;-78
2022/07/06 06:45:14;;;;;;;12.90;5.30;;;;;20.70;102151.00;;;;10490969;28;20268;-78
2022/07/06 06:50:17;;;;;;;15.82;4.60;;;;;20.80;102158.00;;;;10441112;28;20200;-78
2022/07/06 06:55:19;;;;;;;7.70;2.80;;;;;21.40;102157.00;;;;10473873;28;20189;-78
2022/07/06 07:00:21;;;;;;;6.35;2.60;;;;;21.00;102165.00;;;;10440668;28;20205;-78
2022/07/06 07:05:23;;;;;;;8.77;2.88;;;;;21.30;102172.00;;;;10432153;28;20201;-77
2022/07/06 07:10:26;;;;;;;4.88;2.65;;;;;21.30;102166.00;;;;10399173;28;20214;-78
2022/07/06 07:15:28;;;;;;;7.78;3.38;;;;;21.30;102165.00;;;;10415289;28;20556;-78
2022/07/06 07:20:30;;;;;;;4.68;1.88;;;;;22.00;102163.00;;;;10415428;28;20214;-78
2022/07/06 07:25:32;;;;;;;4.75;1.83;;;;;22.70;102164.00;;;;10431371;28;20629;-78
2022/07/06 07:30:34;;;;;;;11.45;2.35;;;;;23.40;102170.00;;;;10435120;28;20213;-78
2022/07/06 07:35:36;;;;;;;8.00;2.17;;;;;24.00;102166.00;;;;10407030;28;20936;-77
2022/07/06 07:40:38;;;;;;;7.05;2.35;;;;;23.90;102162.00;;;;10465659;28;20213;-78
2022/07/06 07:45:40;;;;;;;7.50;1.90;;;;;23.70;102158.00;;;;10447749;28;20289;-78
2022/07/06 07:50:42;;;;;;;7.13;1.67;;;;;23.50;102160.00;;;;10447484;28;20197;-78
2022/07/06 07:55:44;;;;;;;6.10;1.90;;;;;24.30;102154.00;;;;10446796;28;20193;-78
2022/07/06 08:00:46;;;;;;;6.18;1.75;;;;;24.90;102152.00;;;;10430548;28;20239;-78
2022/07/06 08:05:49;;;;;;;3.83;1.45;;;;;24.30;102150.00;;;;10422801;28;20213;-78
2022/07/06 08:10:51;;;;;;;3.28;1.15;;;;;24.60;102147.00;;;;10456728;28;20281;-78
2022/07/06 08:16:13;;;;;;;3.00;1.10;;;;;24.00;102147.00;;;;10441513;28;20248;-78
2022/07/06 08:21:15;;;;;;;5.53;1.80;;;;;24.30;102146.00;;;;10438571;28;20233;-78
2022/07/06 08:26:28;;;;;;;4.95;1.70;;;;;25.40;102137.00;;;;10423237;28;20194;-78
2022/07/06 08:31:31;;;;;;;4.38;1.77;;;;;25.80;102142.00;;;;10428170;28;20201;-78
2022/07/06 08:36:53;;;;;;;4.68;1.30;;;;;25.90;102137.00;;;;10462812;28;20189;-78
2022/07/06 08:41:56;;;;;;;2.63;1.55;;;;;26.40;102127.00;;;;10428954;28;20213;-78
2022/07/06 08:47:00;;;;;;;7.65;2.00;;;;;26.40;102126.00;;;;10446396;28;20579;-78
2022/07/06 08:52:04;;;;;;;5.30;2.00;;;;;26.50;102120.00;;;;10478412;28;20185;-78
2022/07/06 08:57:06;;;;;;;5.63;1.80;;;;;25.50;102113.00;;;;10462055;28;20190;-78
2022/07/06 09:02:13;;;;;;;5.75;1.98;;;;;25.10;102112.00;;;;10451246;28;20253;-78
2022/07/06 09:07:17;;;;;;;3.78;1.50;;;;;24.90;102109.00;;;;10419414;28;20194;-78
2022/07/06 09:12:39;;;;;;;6.15;2.03;;;;;25.20;102119.00;;;;10433239;28;20209;-78
2022/07/06 09:17:43;;;;;;;5.78;1.98;;;;;24.80;102122.00;;;;10420153;28;20178;-78
2022/07/06 09:22:45;;;;;;;3.75;1.90;;;;;25.40;102107.00;;;;10436270;28;20309;-78
2022/07/06 09:27:54;;;;;;;7.03;2.38;;;;;26.90;102121.00;;;;10403027;28;20198;-78
2022/07/06 09:32:57;;;;;;;7.28;2.30;;;;;28.00;102116.00;;;;10458850;28;20255;-78
2022/07/06 09:38:02;;;;;;;7.93;2.20;;;;;28.60;102126.00;;;;10460167;28;20694;-78
2022/07/06 09:43:22;;;;;;;4.40;1.90;;;;;28.30;102125.00;;;;10493717;28;20275;-78
2022/07/06 09:48:27;;;;;;;4.22;1.80;;;;;27.00;102118.00;;;;10458767;28;20182;-78
2022/07/06 09:53:30;;;;;;;5.40;2.08;;;;;27.20;102125.00;;;;10458231;28;20212;-78
2022/07/06 09:58:38;;;;;;;4.63;2.15;;;;;26.90;102132.00;;;;10459173;28;20213;-78
2022/07/06 10:04:00;;;;;;;2.85;1.75;;;;;26.70;102121.00;;;;10432478;28;20193;-78
2022/07/06 10:09:06;;;;;;;5.88;1.75;;;;;26.30;102129.00;;;;10416896;28;20560;-78
2022/07/06 10:14:17;;;;;;;4.25;1.88;;;;;26.80;102130.00;;;;10415450;28;20201;-78
2022/07/06 10:19:21;;;;;;;4.57;2.10;;;;;27.90;102139.00;;;;10433556;28;20301;-78
2022/07/06 10:24:23;;;;;;;3.50;2.08;;;;;29.00;102130.00;;;;10433002;28;20198;-78
2022/07/06 10:29:26;;;;;;;4.13;1.63;;;;;29.20;102134.00;;;;10467711;28;20720;-78
2022/07/06 10:34:28;;;;;;;9.35;2.35;;;;;28.00;102133.00;;;;10432956;28;20206;-78
2022/07/06 10:44:58;;;;;;;5.63;2.33;;;;;26.20;102129.00;;;;10416631;28;20198;-78
2022/07/06 10:50:02;;;;;;;5.30;2.08;;;;;25.90;102128.00;;;;10399575;28;20205;-78
2022/07/06 10:55:39;;;;;;;7.43;2.28;;;;;25.90;102122.00;;;;10430865;28;20280;-77
2022/07/06 11:00:50;;;;;;;4.22;1.73;;;;;26.70;102120.00;;;;10456923;28;20213;-77
2022/07/06 11:06:01;;;;;;;5.03;2.42;;;;;26.40;102120.00;;;;10432729;28;20251;-77
2022/07/06 11:11:14;;;;;;;7.38;2.38;;;;;27.20;102110.00;;;;10400316;28;20905;-76
2022/07/06 11:16:17;;;;;;;4.65;2.08;;;;;28.70;102117.00;;;;10415721;28;20209;-77
2022/07/06 11:21:31;;;;;;;6.43;2.20;;;;;28.80;102117.00;;;;10416741;28;20305;-77
2022/07/06 11:26:36;;;;;;;6.75;2.55;;;;;28.10;102114.00;;;;10415039;28;20263;-77
2022/07/06 11:31:44;;;;;;;6.68;2.67;;;;;28.00;102106.00;;;;10407067;28;20304;-77
2022/07/06 11:36:47;;;;;;;4.75;2.10;;;;;28.10;102107.00;;;;10423867;28;20194;-77
2022/07/06 11:41:49;;;;;;;5.63;2.53;;;;;29.30;102089.00;;;;10440274;28;20240;-77
2022/07/06 11:46:56;;;;;;;6.50;2.30;;;;;29.50;102092.00;;;;10439715;28;20228;-77
2022/07/06 11:51:58;;;;;;;4.90;2.47;;;;;29.10;102100.00;;;;10423102;28;20599;-77
2022/07/06 11:57:01;;;;;;;8.57;3.10;;;;;28.60;102085.00;;;;10439698;28;20202;-77
2022/07/06 12:02:15;;;;;;;4.15;2.22;;;;;29.30;102077.00;;;;10469738;28;20614;-77
2022/07/06 12:07:17;;;;;;;6.85;2.55;;;;;30.20;102077.00;;;;10455771;28;20217;-77
2022/07/06 12:12:19;;;;;;;4.18;2.53;;;;;29.70;102073.00;;;;10439431;28;20200;-78
2022/07/06 12:17:21;;;;;;;7.28;3.05;;;;;28.70;102074.00;;;;10460699;28;20208;-77
2022/07/06 12:22:26;;;;;;;5.97;3.10;;;;;29.40;102065.00;;;;10446020;28;20214;-77
2022/07/06 12:27:34;;;;;;;8.98;3.10;;;;;30.20;102047.00;;;;10446929;28;20251;-77
2022/07/06 12:32:36;;;;;;;7.13;2.92;;;;;30.40;102053.00;;;;10462518;28;20197;-77
2022/07/06 12:37:38;;;;;;;2.92;2.65;;;;;29.80;102044.00;;;;10462887;28;20198;-77
2022/07/06 12:42:47;;;;;;;6.80;2.75;;;;;27.00;102046.00;;;;10497292;28;20472;-77
2022/07/06 12:48:04;;;;;;;6.47;2.38;;;;;28.30;102035.00;;;;10461867;28;20289;-77
2022/07/06 12:53:25;;;;;;;5.53;1.98;;;;;31.40;102033.00;;;;10461307;28;20197;-78
2022/07/06 12:58:28;;;;;;;3.40;2.20;;;;;30.20;102057.00;;;;10439710;28;20256;-77
2022/07/06 13:03:40;;;;;;;5.82;2.72;;;;;29.40;102050.00;;;;10443147;28;20769;-77
2022/07/06 13:08:42;;;;;;;3.22;1.88;;;;;28.50;102055.00;;;;10444919;28;20259;-77
2022/07/06 13:13:44;;;;;;;5.55;2.05;;;;;27.80;102050.00;;;;10445162;28;20201;-77
2022/07/06 13:18:46;;;;;;;2.55;1.67;;;;;29.00;102039.00;;;;10443567;28;20213;-77
2022/07/06 13:23:48;;;;;;;5.63;1.90;;;;;30.90;102038.00;;;;10443697;28;20217;-77
2022/07/06 13:28:50;;;;;;;5.28;1.98;;;;;31.30;102038.00;;;;10458942;28;20205;-77
2022/07/06 13:33:53;;;;;;;6.18;1.70;;;;;31.40;102026.00;;;;10433606;28;20210;-77
2022/07/06 13:38:55;;;;;;;3.45;1.40;;;;;31.30;102016.00;;;;10431714;28;20688;-78
2022/07/06 13:43:58;;;;;;;2.75;1.70;;;;;31.60;102013.00;;;;10459606;28;20248;-78
2022/07/06 13:49:00;;;;;;;4.07;1.77;;;;;31.40;102013.00;;;;10458955;28;20214;-77
2022/07/06 13:54:02;;;;;;;5.75;1.60;;;;;30.50;102008.00;;;;10458579;28;20244;-77
2022/07/06 13:59:04;;;;;;;3.40;1.55;;;;;30.80;101998.00;;;;10440845;28;20229;-77
2022/07/06 14:04:06;;;;;;;5.20;1.70;;;;;30.60;102002.00;;;;10458286;28;20248;-77
2022/07/06 14:09:09;;;;;;;6.93;1.55;;;;;30.10;101992.00;;;;10425643;28;20284;-77
2022/07/06 14:14:10;;;;;;;2.95;1.70;;;;;31.50;101995.00;;;;10441087;28;20236;-77
2022/07/06 14:19:12;;;;;;;3.15;1.75;;;;;30.20;101983.00;;;;10467610;28;20240;-76
2022/07/06 14:24:21;;;;;;;6.28;1.70;;;;;31.50;101966.00;;;;10404997;28;20296;-77
2022/07/06 14:29:23;;;;;;;4.75;1.73;;;;;30.00;101992.00;;;;10417856;28;20684;-77
2022/07/06 14:34:25;;;;;;;2.58;1.30;;;;;29.70;101982.00;;;;10416278;28;20229;-78
2022/07/06 14:39:27;;;;;;;2.15;1.42;;;;;29.60;101968.00;;;;10430534;28;20788;-77
2022/07/06 14:44:29;;;;;;;6.22;1.92;;;;;32.10;101970.00;;;;10426592;28;20225;-77
2022/07/06 14:49:31;;;;;;;4.68;1.70;;;;;32.80;101968.00;;;;10438462;28;20215;-77
2022/07/06 14:54:33;;;;;;;6.95;1.55;;;;;31.50;101964.00;;;;10392254;28;20217;-77
2022/07/06 14:59:35;;;;;;;3.00;1.48;;;;;31.40;101939.00;;;;10408557;28;20237;-77
2022/07/06 15:04:38;;;;;;;5.07;1.60;;;;;36.00;101934.00;;;;10424435;28;20198;-77
2022/07/06 15:09:40;;;;;;;3.72;1.55;;;;;37.00;101942.00;;;;10409137;28;20194;-77
2022/07/06 15:14:42;;;;;;;5.05;1.98;;;;;36.10;101942.00;;;;10402173;28;20194;-77
2022/07/06 15:19:44;;;;;;;2.28;1.35;;;;;35.30;101955.00;;;;10457362;28;20202;-77
2022/07/06 15:24:54;;;;;;;3.13;1.52;;;;;32.80;101933.00;;;;10396811;28;20189;-77
2022/07/06 15:29:56;;;;;;;4.78;1.52;;;;;32.10;101946.00;;;;10408190;28;20656;-77
2022/07/06 15:34:58;;;;;;;3.75;1.63;;;;;28.50;101928.00;;;;10448463;28;20247;-78
2022/07/06 15:40:02;;;;;;;2.22;1.45;;;;;27.70;101923.00;;;;10430510;28;20214;-78
2022/07/06 15:45:10;;;;;;;3.92;2.20;;;;;27.20;101910.00;;;;10435047;28;20275;-78
2022/07/06 15:50:13;;;;;;;3.50;1.55;;;;;28.40;101902.00;;;;10427040;28;20197;-77
2022/07/06 15:55:16;;;;;;;3.80;2.67;;;;;29.60;101893.00;;;;10453477;28;20286;-77
2022/07/06 16:00:18;;;;;;;5.65;2.25;;;;;27.20;101886.00;;;;10405516;28;20240;-77
2022/07/06 16:05:24;;;;;;;3.08;1.90;;;;;26.70;101876.00;;;;10473142;28;20268;-77
2022/07/06 16:10:30;;;;;;;3.58;2.00;;;;;26.30;101883.00;;;;10449907;28;20186;-78
2022/07/06 16:15:32;;;;;;;5.00;2.03;;;;;25.90;101880.00;;;;10449201;28;20217;-77
2022/07/06 16:20:33;;;;;;;3.70;2.38;;;;;25.80;101879.00;;;;10445431;28;20232;-77
2022/07/06 16:25:36;;;;;;;2.42;1.83;;;;;25.70;101865.00;;;;10453673;28;20216;-77
2022/07/06 16:30:38;;;;;;;7.32;2.53;;;;;25.80;101864.00;;;;10455691;28;20743;-77
2022/07/06 16:35:41;;;;;;;3.60;1.50;;;;;26.20;101852.00;;;;10433773;28;20202;-77
2022/07/06 16:40:51;;;;;;;3.80;1.88;;;;;26.50;101859.00;;;;10454163;28;20212;-77
2022/07/06 16:45:53;;;;;;;4.60;1.80;;;;;26.30;101842.00;;;;10451818;28;20198;-77
2022/07/06 16:50:56;;;;;;;6.55;2.03;;;;;25.70;101842.00;;;;10436949;28;20660;-77
2022/07/06 16:55:58;;;;;;;5.30;2.38;;;;;25.70;101844.00;;;;10457429;28;20189;-77
2022/07/06 17:01:00;;;;;;;7.28;2.20;;;;;25.80;101840.00;;;;10401175;28;20225;-78
2022/07/06 17:06:03;;;;;;;4.30;2.95;;;;;25.60;101836.00;;;;10466510;28;20607;-79
2022/07/06 17:11:05;;;;;;;7.28;3.72;;;;;25.00;101833.00;;;;10447366;28;20193;-78
2022/07/06 17:16:07;;;;;;;8.82;3.40;;;;;24.40;101833.00;;;;10449541;28;20192;-78
2022/07/06 17:21:09;;;;;;;9.18;4.22;;;;;24.30;101837.00;;;;10407683;28;20214;-78
2022/07/06 17:26:11;;;;;;;6.30;4.32;;;;;24.00;101826.00;;;;10423905;28;20240;-78
2022/07/06 17:31:13;;;;;;;8.63;4.90;;;;;23.80;101828.00;;;;10428114;28;20202;-78
2022/07/06 17:36:15;;;;;;;9.00;4.25;;;;;23.50;101828.00;;;;10464566;28;20189;-78
2022/07/06 17:41:17;;;;;;;10.68;5.15;;;;;23.30;101831.00;;;;10460545;28;20221;-78
2022/07/06 17:46:19;;;;;;;8.20;4.45;;;;;23.00;101831.00;;;;10447403;28;20186;-78
2022/07/06 17:51:21;;;;;;;5.75;5.03;;;;;22.80;101839.00;;;;10446991;28;20229;-78
2022/07/06 17:56:26;;;;;;;8.30;4.22;;;;;22.60;101832.00;;;;10431448;28;20197;-78
2022/07/06 18:01:28;;;;;;;8.68;4.80;;;;;22.70;101825.00;;;;10441481;28;20317;-78
2022/07/06 18:06:30;;;;;;;8.63;4.45;;;;;22.50;101823.00;;;;10438264;28;20190;-77
2022/07/06 18:11:32;;;;;;;4.15;3.25;;;;;22.30;101816.00;;;;10405304;28;20194;-78
2022/07/06 18:16:34;;;;;;;5.13;3.38;;;;;22.30;101811.00;;;;10453533;28;20600;-78
2022/07/06 18:21:36;;;;;;;7.07;3.80;;;;;22.20;101809.00;;;;10420893;28;20218;-78
2022/07/06 18:26:39;;;;;;;5.65;2.67;;;;;21.90;101801.00;;;;10421535;28;20182;-78
2022/07/06 18:31:41;;;;;;;7.45;2.90;;;;;21.80;101809.00;;;;10445284;28;20296;-78
2022/07/06 18:36:43;;;;;;;4.15;2.53;;;;;21.60;101818.00;;;;10462456;28;20201;-78
2022/07/06 18:41:46;;;;;;;5.10;2.17;;;;;21.50;101812.00;;;;10478236;28;20556;-79
2022/07/06 18:46:55;;;;;;;4.03;1.95;;;;;21.40;101818.00;;;;10479059;28;20611;-79
2022/07/06 18:51:57;;;;;;;4.88;1.45;;;;;21.20;101819.00;;;;10461678;28;20235;-79
2022/07/06 18:56:59;;;;;;;5.05;1.70;;;;;21.10;101810.00;;;;10429179;28;20280;-78
2022/07/06 19:02:01;;;;;;;6.57;1.30;;;;;21.00;101811.00;;;;10421478;28;20271;-78
2022/07/06 19:07:04;;;;;;;3.63;1.23;;;;;20.90;101810.00;;;;10419385;28;20237;-79
2022/07/06 19:12:06;;;;;;;3.67;1.20;;;;;20.80;101817.00;;;;10436030;28;20294;-79
2022/07/06 19:17:08;;;;;;;2.90;1.13;;;;;20.70;101813.00;;;;10422060;28;20250;-78
2022/07/06 19:22:11;;;;;;;2.28;0.98;;;;;20.60;101807.00;;;;10444764;28;20209;-78
2022/07/06 19:27:13;;;;;;;1.17;0.77;;;;;20.50;101811.00;;;;10450033;28;20251;-78
2022/07/06 19:32:15;;;;;;;5.93;1.10;;;;;20.50;101813.00;;;;10472683;28;20205;-78
2022/07/06 19:37:17;;;;;;;3.78;0.93;;;;;20.50;101816.00;;;;10443837;28;20244;-78
2022/07/06 19:42:19;;;;;;;4.00;1.05;;;;;20.40;101819.00;;;;10427419;28;20301;-78
2022/07/06 19:47:21;;;;;;;1.92;0.80;;;;;20.30;101823.00;;;;10431864;28;20194;-79
2022/07/06 19:52:23;;;;;;;3.45;1.00;;;;;20.20;101803.00;;;;10451846;28;20185;-79
2022/07/06 19:57:25;;;;;;;2.38;1.45;;;;;20.20;101808.00;;;;10430267;28;20235;-79
2022/07/06 20:02:27;;;;;;;2.00;0.82;;;;;20.10;101823.00;;;;10415200;28;20214;-79
2022/07/06 20:07:29;;;;;;;5.65;0.88;;;;;20.10;101821.00;;;;10446045;28;20725;-79
2022/07/06 20:12:31;;;;;;;2.35;0.90;;;;;20.00;101824.00;;;;10451499;28;20261;-78
2022/07/06 20:17:33;;;;;;;4.38;0.73;;;;;20.00;101820.00;;;;10449822;28;20714;-78
2022/07/06 20:22:35;;;;;;;2.35;1.05;;;;;20.00;101819.00;;;;10483532;28;20575;-79
2022/07/06 20:27:37;;;;;;;2.50;0.85;;;;;19.90;101833.00;;;;10466608;28;20276;-78
2022/07/06 20:32:39;;;;;;;2.05;0.90;;;;;19.90;101837.00;;;;10434331;28;20194;-78
2022/07/06 20:37:41;;;;;;;2.53;0.80;;;;;19.90;101839.00;;;;10482210;28;20247;-78
2022/07/06 20:42:43;;;;;;;2.00;0.80;;;;;19.80;101834.00;;;;10482403;28;20220;-78
2022/07/06 20:48:05;;;;;;;2.13;0.77;;;;;19.80;101836.00;;;;10481952;28;20186;-78
2022/07/06 20:53:07;;;;;;;2.50;0.90;;;;;19.70;101824.00;;;;10483101;28;20588;-78
2022/07/06 20:58:09;;;;;;;0.88;0.88;;;;;19.70;101818.00;;;;10465469;28;20237;-78
2022/07/06 21:03:11;;;;;;;2.13;0.95;;;;;19.70;101826.00;;;;10430916;28;20992;-78
2022/07/06 21:08:14;;;;;;;3.13;0.90;;;;;19.70;101821.00;;;;10458548;28;20195;-79
2022/07/06 21:13:16;;;;;;;0.98;0.88;;;;;19.60;101813.00;;;;10441147;28;20191;-79
2022/07/06 21:18:18;;;;;;;1.00;0.70;;;;;19.60;101809.00;;;;10458967;28;20195;-79
2022/07/06 21:23:20;;;;;;;1.45;0.70;;;;;19.50;101806.00;;;;10458679;28;20217;-79
2022/07/06 21:28:22;;;;;;;1.33;1.00;;;;;19.50;101806.00;;;;10424936;28;20198;-79
2022/07/06 21:33:26;;;;;;;2.30;1.00;;;;;19.40;101797.00;;;;10425189;28;20232;-79
2022/07/06 21:38:31;;;;;;;3.60;0.80;;;;;19.40;101801.00;;;;10456988;28;20186;-78
2022/07/06 21:43:33;;;;;;;1.30;1.20;;;;;19.40;101802.00;;;;10442746;28;20267;-80
2022/07/06 21:48:35;;;;;;;1.33;1.23;;;;;19.40;101804.00;;;;10422161;28;20615;-79
2022/07/06 21:53:37;;;;;;;2.55;1.70;;;;;19.30;101799.00;;;;10421624;28;20285;-79
2022/07/06 21:58:41;;;;;;;1.38;0.90;;;;;19.30;101792.00;;;;10423633;28;20225;-79
2022/07/06 22:03:43;;;;;;;3.72;1.00;;;;;19.20;101778.00;;;;10431338;28;20719;-78
2022/07/06 22:08:45;;;;;;;1.20;1.10;;;;;19.10;101774.00;;;;10431458;28;20256;-79
2022/07/06 22:13:47;;;;;;;2.13;1.30;;;;;19.00;101775.00;;;;10431646;28;20594;-79
2022/07/06 22:18:56;;;;;;;2.20;1.23;;;;;18.90;101771.00;;;;10463682;28;20255;-79
2022/07/06 22:23:58;;;;;;;1.75;1.50;;;;;18.80;101775.00;;;;10446563;28;20213;-79
2022/07/06 22:29:00;;;;;;;2.05;1.85;;;;;18.70;101773.00;;;;10447101;28;20210;-79
2022/07/06 22:34:02;;;;;;;3.10;1.67;;;;;18.50;101784.00;;;;10446778;28;20272;-79
2022/07/06 22:39:05;;;;;;;2.47;1.60;;;;;18.40;101772.00;;;;10429788;28;20194;-79
2022/07/06 22:44:07;;;;;;;4.32;1.90;;;;;18.40;101763.00;;;;10472934;28;20203;-79
2022/07/06 22:49:09;;;;;;;2.88;2.03;;;;;18.40;101767.00;;;;10420667;28;20182;-79
2022/07/06 22:54:12;;;;;;;2.25;1.98;;;;;18.30;101762.00;;;;10429310;28;20194;-79
2022/07/06 22:59:14;;;;;;;3.85;2.33;;;;;18.20;101762.00;;;;10478601;28;20213;-79
2022/07/06 23:04:16;;;;;;;3.22;2.38;;;;;18.20;101752.00;;;;10427188;28;20229;-79
2022/07/06 23:09:18;;;;;;;4.40;2.65;;;;;18.10;101747.00;;;;10436555;28;20552;-79
2022/07/06 23:14:20;;;;;;;2.60;2.40;;;;;18.10;101753.00;;;;10437462;28;20205;-79
2022/07/06 23:19:23;;;;;;;3.13;2.33;;;;;18.10;101757.00;;;;10442536;28;20232;-79
2022/07/06 23:24:25;;;;;;;4.82;2.42;;;;;18.20;101750.00;;;;10445259;28;20280;-79
2022/07/06 23:29:27;;;;;;;3.78;2.40;;;;;18.30;101738.00;;;;10444593;28;20201;-79
2022/07/06 23:34:29;;;;;;;3.85;2.60;;;;;18.50;101743.00;;;;10461355;28;20190;-79
2022/07/06 23:39:31;;;;;;;5.32;2.00;;;;;18.60;101734.00;;;;10461575;28;20189;-79
2022/07/06 23:44:33;;;;;;;3.25;2.10;;;;;18.70;101733.00;;;;10444516;28;20213;-79
2022/07/06 23:49:35;;;;;;;2.53;2.33;;;;;18.70;101725.00;;;;10461137;28;20190;-79
2022/07/06 23:54:38;;;;;;;4.15;2.30;;;;;18.80;101719.00;;;;10477550;28;20189;-79
2022/07/06 23:59:40;;;;;;;2.03;1.73;;;;;18.80;101703.00;;;;10445050;28;20615;-79
